sensor_id;sensor_type;location;lat;lon;timestamp;P1;durP1;ratioP1;P2;durP2;ratioP2
74963;SDS011;63521;51.900;4.748;2022-11-04T00:01:36;0.63;;;0.63;;
74963;SDS011;63521;51.900;4.748;2022-11-04T00:04:03;2.03;;;0.60;;
74963;SDS011;63521;51.900;4.748;2022-11-04T00:06:29;0.75;;;0.68;;
74963;SDS011;63521;51.900;4.748;2022-11-04T00:08:55;0.57;;;0.57;;
74963;SDS011;63521;51.900;4.748;2022-11-04T00:11:22;1.30;;;0.80;;
74963;SDS011;63521;51.900;4.748;2022-11-04T00:14:06;0.98;;;0.55;;
74963;SDS011;63521;51.900;4.748;2022-11-04T00:16:33;1.95;;;0.60;;
74963;SDS011;63521;51.900;4.748;2022-11-04T00:19:17;0.93;;;0.80;;
74963;SDS011;63521;51.900;4.748;2022-11-04T00:21:42;0.43;;;0.43;;
74963;SDS011;63521;51.900;4.748;2022-11-04T00:24:27;0.43;;;0.43;;
74963;SDS011;63521;51.900;4.748;2022-11-04T00:27:08;0.85;;;0.65;;
74963;SDS011;63521;51.900;4.748;2022-11-04T00:29:56;0.85;;;0.70;;
74963;SDS011;63521;51.900;4.748;2022-11-04T00:32:22;0.50;;;0.50;;
74963;SDS011;63521;51.900;4.748;2022-11-04T00:35:06;0.50;;;0.50;;
74963;SDS011;63521;51.900;4.748;2022-11-04T00:37:39;0.85;;;0.60;;
74963;SDS011;63521;51.900;4.748;2022-11-04T00:40:06;0.50;;;0.50;;
74963;SDS011;63521;51.900;4.748;2022-11-04T00:42:33;0.98;;;0.93;;
74963;SDS011;63521;51.900;4.748;2022-11-04T00:44:58;0.90;;;0.60;;
74963;SDS011;63521;51.900;4.748;2022-11-04T00:47:23;0.52;;;0.43;;
74963;SDS011;63521;51.900;4.748;2022-11-04T00:49:49;0.93;;;0.70;;
74963;SDS011;63521;51.900;4.748;2022-11-04T00:52:14;0.88;;;0.57;;
74963;SDS011;63521;51.900;4.748;2022-11-04T00:54:40;0.50;;;0.50;;
74963;SDS011;63521;51.900;4.748;2022-11-04T00:57:08;0.65;;;0.60;;
74963;SDS011;63521;51.900;4.748;2022-11-04T00:59:34;0.77;;;0.60;;
74963;SDS011;63521;51.900;4.748;2022-11-04T01:01:59;0.98;;;0.70;;
74963;SDS011;63521;51.900;4.748;2022-11-04T01:04:24;0.73;;;0.60;;
74963;SDS011;63521;51.900;4.748;2022-11-04T01:06:51;0.93;;;0.40;;
74963;SDS011;63521;51.900;4.748;2022-11-04T01:09:17;0.38;;;0.32;;
74963;SDS011;63521;51.900;4.748;2022-11-04T01:11:42;0.38;;;0.38;;
74963;SDS011;63521;51.900;4.748;2022-11-04T01:14:08;0.93;;;0.65;;
74963;SDS011;63521;51.900;4.748;2022-11-04T01:16:33;0.50;;;0.30;;
74963;SDS011;63521;51.900;4.748;2022-11-04T01:18:59;0.52;;;0.40;;
74963;SDS011;63521;51.900;4.748;2022-11-04T01:21:24;0.52;;;0.40;;
74963;SDS011;63521;51.900;4.748;2022-11-04T01:23:49;1.05;;;0.73;;
74963;SDS011;63521;51.900;4.748;2022-11-04T01:26:16;0.70;;;0.40;;
74963;SDS011;63521;51.900;4.748;2022-11-04T01:28:44;0.50;;;0.50;;
74963;SDS011;63521;51.900;4.748;2022-11-04T01:31:11;0.88;;;0.40;;
74963;SDS011;63521;51.900;4.748;2022-11-04T01:33:38;0.20;;;0.20;;
74963;SDS011;63521;51.900;4.748;2022-11-04T01:36:05;0.30;;;0.30;;
74963;SDS011;63521;51.900;4.748;2022-11-04T01:38:31;0.60;;;0.57;;
74963;SDS011;63521;51.900;4.748;2022-11-04T01:40:57;0.98;;;0.45;;
74963;SDS011;63521;51.900;4.748;2022-11-04T01:43:30;0.88;;;0.38;;
74963;SDS011;63521;51.900;4.748;2022-11-04T01:48:58;0.40;;;0.40;;
74963;SDS011;63521;51.900;4.748;2022-11-04T01:51:27;0.80;;;0.40;;
74963;SDS011;63521;51.900;4.748;2022-11-04T01:53:55;1.05;;;0.40;;
74963;SDS011;63521;51.900;4.748;2022-11-04T01:56:21;0.38;;;0.38;;
74963;SDS011;63521;51.900;4.748;2022-11-04T01:58:51;0.60;;;0.40;;
74963;SDS011;63521;51.900;4.748;2022-11-04T02:01:19;0.60;;;0.40;;
74963;SDS011;63521;51.900;4.748;2022-11-04T02:03:48;0.20;;;0.20;;
74963;SDS011;63521;51.900;4.748;2022-11-04T02:06:16;0.30;;;0.30;;
74963;SDS011;63521;51.900;4.748;2022-11-04T02:08:43;0.70;;;0.45;;
74963;SDS011;63521;51.900;4.748;2022-11-04T02:11:10;0.45;;;0.20;;
74963;SDS011;63521;51.900;4.748;2022-11-04T02:13:55;0.30;;;0.30;;
74963;SDS011;63521;51.900;4.748;2022-11-04T02:16:27;0.80;;;0.60;;
74963;SDS011;63521;51.900;4.748;2022-11-04T02:19:25;0.30;;;0.30;;
74963;SDS011;63521;51.900;4.748;2022-11-04T02:22:01;0.40;;;0.30;;
74963;SDS011;63521;51.900;4.748;2022-11-04T02:30:05;0.98;;;0.30;;
74963;SDS011;63521;51.900;4.748;2022-11-04T02:32:35;0.75;;;0.30;;
74963;SDS011;63521;51.900;4.748;2022-11-04T02:35:19;0.40;;;0.40;;
74963;SDS011;63521;51.900;4.748;2022-11-04T02:37:49;0.47;;;0.40;;
74963;SDS011;63521;51.900;4.748;2022-11-04T02:43:06;0.47;;;0.47;;
74963;SDS011;63521;51.900;4.748;2022-11-04T02:45:37;1.60;;;0.50;;
74963;SDS011;63521;51.900;4.748;2022-11-04T02:48:10;0.60;;;0.60;;
74963;SDS011;63521;51.900;4.748;2022-11-04T02:50:47;0.80;;;0.50;;
74963;SDS011;63521;51.900;4.748;2022-11-04T02:53:17;0.43;;;0.43;;
74963;SDS011;63521;51.900;4.748;2022-11-04T02:56:03;1.23;;;0.50;;
74963;SDS011;63521;51.900;4.748;2022-11-04T02:58:29;0.70;;;0.70;;
74963;SDS011;63521;51.900;4.748;2022-11-04T03:00:58;0.50;;;0.50;;
74963;SDS011;63521;51.900;4.748;2022-11-04T03:03:25;0.90;;;0.60;;
74963;SDS011;63521;51.900;4.748;2022-11-04T03:05:53;0.85;;;0.60;;
74963;SDS011;63521;51.900;4.748;2022-11-04T03:08:23;1.00;;;0.68;;
74963;SDS011;63521;51.900;4.748;2022-11-04T03:10:59;0.52;;;0.52;;
74963;SDS011;63521;51.900;4.748;2022-11-04T03:13:30;0.77;;;0.65;;
74963;SDS011;63521;51.900;4.748;2022-11-04T03:15:59;1.20;;;0.93;;
74963;SDS011;63521;51.900;4.748;2022-11-04T03:18:35;0.80;;;0.80;;
74963;SDS011;63521;51.900;4.748;2022-11-04T03:21:07;0.73;;;0.70;;
74963;SDS011;63521;51.900;4.748;2022-11-04T03:23:33;0.88;;;0.65;;
74963;SDS011;63521;51.900;4.748;2022-11-04T03:26:06;1.13;;;0.80;;
74963;SDS011;63521;51.900;4.748;2022-11-04T03:31:04;1.23;;;1.02;;
74963;SDS011;63521;51.900;4.748;2022-11-04T03:33:37;1.10;;;0.85;;
74963;SDS011;63521;51.900;4.748;2022-11-04T03:36:05;2.33;;;1.10;;
74963;SDS011;63521;51.900;4.748;2022-11-04T03:38:33;0.75;;;0.70;;
74963;SDS011;63521;51.900;4.748;2022-11-04T03:40:59;0.95;;;0.73;;
74963;SDS011;63521;51.900;4.748;2022-11-04T03:43:26;1.30;;;0.80;;
74963;SDS011;63521;51.900;4.748;2022-11-04T03:45:53;1.35;;;0.90;;
74963;SDS011;63521;51.900;4.748;2022-11-04T03:48:18;1.02;;;0.85;;
74963;SDS011;63521;51.900;4.748;2022-11-04T03:50:45;0.90;;;0.80;;
74963;SDS011;63521;51.900;4.748;2022-11-04T03:53:12;0.63;;;0.60;;
74963;SDS011;63521;51.900;4.748;2022-11-04T03:58:36;0.73;;;0.60;;
74963;SDS011;63521;51.900;4.748;2022-11-04T04:01:13;0.80;;;0.80;;
74963;SDS011;63521;51.900;4.748;2022-11-04T04:03:53;1.23;;;0.85;;
74963;SDS011;63521;51.900;4.748;2022-11-04T04:06:28;0.75;;;0.70;;
74963;SDS011;63521;51.900;4.748;2022-11-04T04:09:10;0.85;;;0.73;;
74963;SDS011;63521;51.900;4.748;2022-11-04T04:12:03;1.00;;;0.77;;
74963;SDS011;63521;51.900;4.748;2022-11-04T04:14:34;1.40;;;0.70;;
74963;SDS011;63521;51.900;4.748;2022-11-04T04:17:04;1.10;;;1.00;;
74963;SDS011;63521;51.900;4.748;2022-11-04T04:19:44;1.30;;;0.70;;
74963;SDS011;63521;51.900;4.748;2022-11-04T04:22:13;0.68;;;0.65;;
74963;SDS011;63521;51.900;4.748;2022-11-04T04:24:42;1.05;;;0.90;;
74963;SDS011;63521;51.900;4.748;2022-11-04T04:27:27;0.90;;;0.73;;
74963;SDS011;63521;51.900;4.748;2022-11-04T04:29:55;0.85;;;0.70;;
74963;SDS011;63521;51.900;4.748;2022-11-04T04:32:22;1.05;;;0.70;;
74963;SDS011;63521;51.900;4.748;2022-11-04T04:34:48;1.80;;;0.90;;
74963;SDS011;63521;51.900;4.748;2022-11-04T04:37:18;0.95;;;0.80;;
74963;SDS011;63521;51.900;4.748;2022-11-04T04:42:31;1.83;;;0.80;;
74963;SDS011;63521;51.900;4.748;2022-11-04T04:45:23;1.08;;;0.98;;
74963;SDS011;63521;51.900;4.748;2022-11-04T04:47:49;1.10;;;0.90;;
74963;SDS011;63521;51.900;4.748;2022-11-04T04:50:16;1.95;;;1.00;;
74963;SDS011;63521;51.900;4.748;2022-11-04T04:52:45;1.30;;;0.80;;
74963;SDS011;63521;51.900;4.748;2022-11-04T04:55:12;1.33;;;0.80;;
74963;SDS011;63521;51.900;4.748;2022-11-04T04:57:38;2.17;;;0.80;;
74963;SDS011;63521;51.900;4.748;2022-11-04T05:00:04;2.65;;;0.77;;
74963;SDS011;63521;51.900;4.748;2022-11-04T05:02:31;1.52;;;0.70;;
74963;SDS011;63521;51.900;4.748;2022-11-04T05:04:57;0.85;;;0.70;;
74963;SDS011;63521;51.900;4.748;2022-11-04T05:07:23;1.10;;;1.00;;
74963;SDS011;63521;51.900;4.748;2022-11-04T05:09:49;1.52;;;1.05;;
74963;SDS011;63521;51.900;4.748;2022-11-04T05:12:16;1.63;;;1.00;;
74963;SDS011;63521;51.900;4.748;2022-11-04T05:14:41;1.00;;;0.80;;
74963;SDS011;63521;51.900;4.748;2022-11-04T05:17:07;0.88;;;0.85;;
74963;SDS011;63521;51.900;4.748;2022-11-04T05:19:35;1.52;;;1.10;;
74963;SDS011;63521;51.900;4.748;2022-11-04T05:22:00;0.98;;;0.80;;
74963;SDS011;63521;51.900;4.748;2022-11-04T05:24:26;1.13;;;0.95;;
74963;SDS011;63521;51.900;4.748;2022-11-04T05:26:52;1.50;;;0.95;;
74963;SDS011;63521;51.900;4.748;2022-11-04T05:29:18;1.42;;;0.90;;
74963;SDS011;63521;51.900;4.748;2022-11-04T05:31:43;0.80;;;0.80;;
74963;SDS011;63521;51.900;4.748;2022-11-04T05:34:09;1.38;;;0.93;;
74963;SDS011;63521;51.900;4.748;2022-11-04T05:36:35;0.93;;;0.90;;
74963;SDS011;63521;51.900;4.748;2022-11-04T05:39:01;2.05;;;0.90;;
74963;SDS011;63521;51.900;4.748;2022-11-04T05:41:27;1.00;;;0.90;;
74963;SDS011;63521;51.900;4.748;2022-11-04T05:43:53;0.93;;;0.90;;
74963;SDS011;63521;51.900;4.748;2022-11-04T05:46:20;1.45;;;1.00;;
74963;SDS011;63521;51.900;4.748;2022-11-04T05:48:46;1.30;;;1.00;;
74963;SDS011;63521;51.900;4.748;2022-11-04T05:51:15;0.85;;;0.82;;
74963;SDS011;63521;51.900;4.748;2022-11-04T05:53:41;1.52;;;0.80;;
74963;SDS011;63521;51.900;4.748;2022-11-04T05:56:07;1.55;;;1.00;;
74963;SDS011;63521;51.900;4.748;2022-11-04T05:58:33;2.30;;;1.10;;
74963;SDS011;63521;51.900;4.748;2022-11-04T06:01:11;1.00;;;0.85;;
74963;SDS011;63521;51.900;4.748;2022-11-04T06:03:37;0.93;;;0.80;;
74963;SDS011;63521;51.900;4.748;2022-11-04T06:06:02;1.75;;;1.27;;
74963;SDS011;63521;51.900;4.748;2022-11-04T06:08:28;1.65;;;1.00;;
74963;SDS011;63521;51.900;4.748;2022-11-04T06:10:55;1.15;;;0.80;;
74963;SDS011;63521;51.900;4.748;2022-11-04T06:13:22;1.77;;;1.00;;
74963;SDS011;63521;51.900;4.748;2022-11-04T06:15:48;1.50;;;1.10;;
74963;SDS011;63521;51.900;4.748;2022-11-04T06:18:13;0.73;;;0.73;;
74963;SDS011;63521;51.900;4.748;2022-11-04T06:20:38;1.00;;;0.90;;
74963;SDS011;63521;51.900;4.748;2022-11-04T06:23:04;2.13;;;0.80;;
74963;SDS011;63521;51.900;4.748;2022-11-04T06:25:29;1.00;;;0.90;;
74963;SDS011;63521;51.900;4.748;2022-11-04T06:27:54;2.00;;;0.80;;
74963;SDS011;63521;51.900;4.748;2022-11-04T06:30:20;2.33;;;0.80;;
74963;SDS011;63521;51.900;4.748;2022-11-04T06:32:45;0.88;;;0.82;;
74963;SDS011;63521;51.900;4.748;2022-11-04T06:35:11;0.98;;;0.90;;
74963;SDS011;63521;51.900;4.748;2022-11-04T06:37:37;0.82;;;0.80;;
74963;SDS011;63521;51.900;4.748;2022-11-04T06:40:03;1.38;;;0.88;;
74963;SDS011;63521;51.900;4.748;2022-11-04T06:42:28;1.08;;;0.90;;
74963;SDS011;63521;51.900;4.748;2022-11-04T06:44:54;1.45;;;0.90;;
74963;SDS011;63521;51.900;4.748;2022-11-04T06:51:19;1.63;;;0.80;;
74963;SDS011;63521;51.900;4.748;2022-11-04T07:02:32;0.50;;;0.50;;
74963;SDS011;63521;51.900;4.748;2022-11-04T07:04:57;0.77;;;0.77;;
74963;SDS011;63521;51.900;4.748;2022-11-04T07:07:24;0.73;;;0.73;;
74963;SDS011;63521;51.900;4.748;2022-11-04T07:09:51;1.50;;;0.80;;
74963;SDS011;63521;51.900;4.748;2022-11-04T07:12:17;0.98;;;0.80;;
74963;SDS011;63521;51.900;4.748;2022-11-04T07:14:42;0.80;;;0.68;;
74963;SDS011;63521;51.900;4.748;2022-11-04T07:17:08;1.00;;;0.85;;
74963;SDS011;63521;51.900;4.748;2022-11-04T07:19:33;0.95;;;0.88;;
74963;SDS011;63521;51.900;4.748;2022-11-04T07:21:58;1.13;;;0.90;;
74963;SDS011;63521;51.900;4.748;2022-11-04T07:24:24;0.68;;;0.63;;
74963;SDS011;63521;51.900;4.748;2022-11-04T07:26:49;1.75;;;0.90;;
74963;SDS011;63521;51.900;4.748;2022-11-04T07:29:15;0.52;;;0.52;;
74963;SDS011;63521;51.900;4.748;2022-11-04T07:31:40;1.05;;;0.50;;
74963;SDS011;63521;51.900;4.748;2022-11-04T07:34:07;0.50;;;0.50;;
74963;SDS011;63521;51.900;4.748;2022-11-04T07:36:33;0.55;;;0.55;;
74963;SDS011;63521;51.900;4.748;2022-11-04T07:38:58;0.82;;;0.77;;
74963;SDS011;63521;51.900;4.748;2022-11-04T07:41:23;0.95;;;0.85;;
74963;SDS011;63521;51.900;4.748;2022-11-04T07:43:49;1.20;;;0.85;;
74963;SDS011;63521;51.900;4.748;2022-11-04T07:46:15;0.68;;;0.68;;
74963;SDS011;63521;51.900;4.748;2022-11-04T07:48:41;0.77;;;0.73;;
74963;SDS011;63521;51.900;4.748;2022-11-04T07:51:07;0.95;;;0.65;;
74963;SDS011;63521;51.900;4.748;2022-11-04T07:53:34;1.50;;;0.52;;
74963;SDS011;63521;51.900;4.748;2022-11-04T07:56:03;0.70;;;0.70;;
74963;SDS011;63521;51.900;4.748;2022-11-04T07:58:29;0.75;;;0.60;;
74963;SDS011;63521;51.900;4.748;2022-11-04T08:01:03;0.85;;;0.73;;
74963;SDS011;63521;51.900;4.748;2022-11-04T08:03:33;0.85;;;0.63;;
74963;SDS011;63521;51.900;4.748;2022-11-04T08:06:00;0.75;;;0.60;;
74963;SDS011;63521;51.900;4.748;2022-11-04T08:08:26;0.82;;;0.77;;
74963;SDS011;63521;51.900;4.748;2022-11-04T08:10:53;0.70;;;0.55;;
74963;SDS011;63521;51.900;4.748;2022-11-04T08:13:28;0.80;;;0.70;;
74963;SDS011;63521;51.900;4.748;2022-11-04T08:15:54;1.05;;;0.60;;
74963;SDS011;63521;51.900;4.748;2022-11-04T08:18:20;0.77;;;0.75;;
74963;SDS011;63521;51.900;4.748;2022-11-04T08:20:58;0.95;;;0.80;;
74963;SDS011;63521;51.900;4.748;2022-11-04T08:24:00;0.63;;;0.50;;
74963;SDS011;63521;51.900;4.748;2022-11-04T08:26:28;0.88;;;0.50;;
74963;SDS011;63521;51.900;4.748;2022-11-04T08:28:53;0.75;;;0.60;;
74963;SDS011;63521;51.900;4.748;2022-11-04T08:33:45;0.82;;;0.77;;
74963;SDS011;63521;51.900;4.748;2022-11-04T08:36:21;1.67;;;0.80;;
74963;SDS011;63521;51.900;4.748;2022-11-04T08:38:52;1.25;;;0.60;;
74963;SDS011;63521;51.900;4.748;2022-11-04T08:41:19;0.68;;;0.68;;
74963;SDS011;63521;51.900;4.748;2022-11-04T08:43:46;0.60;;;0.60;;
74963;SDS011;63521;51.900;4.748;2022-11-04T08:46:12;0.95;;;0.70;;
74963;SDS011;63521;51.900;4.748;2022-11-04T08:48:38;1.05;;;0.70;;
74963;SDS011;63521;51.900;4.748;2022-11-04T08:51:05;1.63;;;0.88;;
74963;SDS011;63521;51.900;4.748;2022-11-04T08:53:34;1.35;;;0.80;;
74963;SDS011;63521;51.900;4.748;2022-11-04T08:58:51;0.95;;;0.60;;
74963;SDS011;63521;51.900;4.748;2022-11-04T09:01:17;0.85;;;0.77;;
74963;SDS011;63521;51.900;4.748;2022-11-04T09:03:43;0.80;;;0.80;;
74963;SDS011;63521;51.900;4.748;2022-11-04T09:06:10;0.95;;;0.93;;
74963;SDS011;63521;51.900;4.748;2022-11-04T09:08:37;0.70;;;0.70;;
74963;SDS011;63521;51.900;4.748;2022-11-04T09:11:07;0.90;;;0.80;;
74963;SDS011;63521;51.900;4.748;2022-11-04T09:13:34;1.02;;;0.90;;
74963;SDS011;63521;51.900;4.748;2022-11-04T09:16:00;1.00;;;0.70;;
74963;SDS011;63521;51.900;4.748;2022-11-04T09:18:33;0.98;;;0.88;;
74963;SDS011;63521;51.900;4.748;2022-11-04T09:20:59;1.40;;;0.77;;
74963;SDS011;63521;51.900;4.748;2022-11-04T09:23:26;0.80;;;0.80;;
74963;SDS011;63521;51.900;4.748;2022-11-04T09:25:51;1.58;;;0.82;;
74963;SDS011;63521;51.900;4.748;2022-11-04T09:28:17;1.45;;;0.60;;
74963;SDS011;63521;51.900;4.748;2022-11-04T09:30:42;1.63;;;0.98;;
74963;SDS011;63521;51.900;4.748;2022-11-04T09:33:08;1.13;;;0.73;;
74963;SDS011;63521;51.900;4.748;2022-11-04T09:35:34;1.73;;;0.90;;
74963;SDS011;63521;51.900;4.748;2022-11-04T09:38:01;1.30;;;0.82;;
74963;SDS011;63521;51.900;4.748;2022-11-04T09:40:27;2.80;;;1.00;;
74963;SDS011;63521;51.900;4.748;2022-11-04T09:46:01;0.85;;;0.75;;
74963;SDS011;63521;51.900;4.748;2022-11-04T09:48:30;0.75;;;0.73;;
74963;SDS011;63521;51.900;4.748;2022-11-04T09:50:57;0.98;;;0.68;;
74963;SDS011;63521;51.900;4.748;2022-11-04T09:55:56;1.05;;;1.00;;
74963;SDS011;63521;51.900;4.748;2022-11-04T10:18:42;1.33;;;0.80;;
74963;SDS011;63521;51.900;4.748;2022-11-04T10:23:44;0.80;;;0.70;;
74963;SDS011;63521;51.900;4.748;2022-11-04T10:26:24;1.48;;;0.80;;
74963;SDS011;63521;51.900;4.748;2022-11-04T10:28:57;1.25;;;0.90;;
74963;SDS011;63521;51.900;4.748;2022-11-04T10:31:27;1.02;;;0.90;;
74963;SDS011;63521;51.900;4.748;2022-11-04T10:33:58;1.02;;;0.90;;
74963;SDS011;63521;51.900;4.748;2022-11-04T10:36:28;1.45;;;0.90;;
74963;SDS011;63521;51.900;4.748;2022-11-04T10:38:54;0.70;;;0.70;;
74963;SDS011;63521;51.900;4.748;2022-11-04T10:43:49;1.00;;;0.88;;
74963;SDS011;63521;51.900;4.748;2022-11-04T10:49:19;0.75;;;0.60;;
74963;SDS011;63521;51.900;4.748;2022-11-04T10:51:54;3.03;;;0.70;;
74963;SDS011;63521;51.900;4.748;2022-11-04T10:54:19;0.73;;;0.73;;
74963;SDS011;63521;51.900;4.748;2022-11-04T10:56:52;0.80;;;0.80;;
74963;SDS011;63521;51.900;4.748;2022-11-04T11:02:42;1.75;;;0.73;;
74963;SDS011;63521;51.900;4.748;2022-11-04T11:07:47;1.00;;;0.88;;
74963;SDS011;63521;51.900;4.748;2022-11-04T11:10:24;1.17;;;0.70;;
74963;SDS011;63521;51.900;4.748;2022-11-04T11:12:58;1.45;;;0.90;;
74963;SDS011;63521;51.900;4.748;2022-11-04T11:15:30;0.88;;;0.60;;
74963;SDS011;63521;51.900;4.748;2022-11-04T11:20:41;1.73;;;0.80;;
74963;SDS011;63521;51.900;4.748;2022-11-04T11:23:31;0.98;;;0.80;;
74963;SDS011;63521;51.900;4.748;2022-11-04T11:25:55;3.40;;;0.80;;
74963;SDS011;63521;51.900;4.748;2022-11-04T11:28:22;1.38;;;0.85;;
74963;SDS011;63521;51.900;4.748;2022-11-04T11:31:00;0.90;;;0.90;;
74963;SDS011;63521;51.900;4.748;2022-11-04T11:36:03;0.93;;;0.75;;
74963;SDS011;63521;51.900;4.748;2022-11-04T11:38:37;1.15;;;0.98;;
74963;SDS011;63521;51.900;4.748;2022-11-04T11:43:41;1.02;;;0.63;;
74963;SDS011;63521;51.900;4.748;2022-11-04T11:46:08;0.95;;;0.77;;
74963;SDS011;63521;51.900;4.748;2022-11-04T11:48:39;0.88;;;0.80;;
74963;SDS011;63521;51.900;4.748;2022-11-04T11:51:11;0.65;;;0.65;;
74963;SDS011;63521;51.900;4.748;2022-11-04T11:53:37;1.08;;;0.90;;
74963;SDS011;63521;51.900;4.748;2022-11-04T11:59:00;1.38;;;0.90;;
74963;SDS011;63521;51.900;4.748;2022-11-04T12:01:39;1.10;;;1.00;;
74963;SDS011;63521;51.900;4.748;2022-11-04T12:04:06;0.82;;;0.63;;
74963;SDS011;63521;51.900;4.748;2022-11-04T12:06:51;1.17;;;1.13;;
74963;SDS011;63521;51.900;4.748;2022-11-04T12:09:31;1.55;;;1.02;;
74963;SDS011;63521;51.900;4.748;2022-11-04T12:12:03;0.90;;;0.90;;
74963;SDS011;63521;51.900;4.748;2022-11-04T12:20:02;3.50;;;1.08;;
74963;SDS011;63521;51.900;4.748;2022-11-04T12:22:38;1.20;;;1.10;;
74963;SDS011;63521;51.900;4.748;2022-11-04T12:30:48;1.08;;;0.95;;
74963;SDS011;63521;51.900;4.748;2022-11-04T13:03:12;1.23;;;0.80;;
74963;SDS011;63521;51.900;4.748;2022-11-04T13:05:44;0.98;;;0.90;;
74963;SDS011;63521;51.900;4.748;2022-11-04T13:08:27;3.25;;;1.00;;
74963;SDS011;63521;51.900;4.748;2022-11-04T13:13:31;1.20;;;0.75;;
74963;SDS011;63521;51.900;4.748;2022-11-04T13:16:01;0.80;;;0.80;;
74963;SDS011;63521;51.900;4.748;2022-11-04T13:18:29;1.00;;;0.90;;
74963;SDS011;63521;51.900;4.748;2022-11-04T13:21:09;0.80;;;0.80;;
74963;SDS011;63521;51.900;4.748;2022-11-04T13:23:39;1.05;;;0.80;;
74963;SDS011;63521;51.900;4.748;2022-11-04T13:26:11;0.57;;;0.57;;
74963;SDS011;63521;51.900;4.748;2022-11-04T13:28:38;0.80;;;0.75;;
74963;SDS011;63521;51.900;4.748;2022-11-04T13:33:51;1.63;;;0.60;;
74963;SDS011;63521;51.900;4.748;2022-11-04T13:45:45;0.80;;;0.70;;
74963;SDS011;63521;51.900;4.748;2022-11-04T13:48:19;1.05;;;0.80;;
74963;SDS011;63521;51.900;4.748;2022-11-04T13:50:53;0.60;;;0.60;;
74963;SDS011;63521;51.900;4.748;2022-11-04T13:53:21;0.65;;;0.65;;
74963;SDS011;63521;51.900;4.748;2022-11-04T13:56:25;0.68;;;0.68;;
74963;SDS011;63521;51.900;4.748;2022-11-04T13:59:03;0.80;;;0.80;;
74963;SDS011;63521;51.900;4.748;2022-11-04T14:04:34;0.90;;;0.70;;
74963;SDS011;63521;51.900;4.748;2022-11-04T14:07:03;0.82;;;0.70;;
74963;SDS011;63521;51.900;4.748;2022-11-04T14:14:42;0.85;;;0.82;;
74963;SDS011;63521;51.900;4.748;2022-11-04T14:17:56;0.85;;;0.50;;
74963;SDS011;63521;51.900;4.748;2022-11-04T14:22:45;0.50;;;0.50;;
74963;SDS011;63521;51.900;4.748;2022-11-04T14:30:42;0.50;;;0.50;;
74963;SDS011;63521;51.900;4.748;2022-11-04T14:35:43;0.52;;;0.52;;
74963;SDS011;63521;51.900;4.748;2022-11-04T14:38:23;1.30;;;0.70;;
74963;SDS011;63521;51.900;4.748;2022-11-04T14:43:52;1.15;;;0.55;;
74963;SDS011;63521;51.900;4.748;2022-11-04T14:46:24;1.10;;;0.50;;
74963;SDS011;63521;51.900;4.748;2022-11-04T14:48:51;0.80;;;0.70;;
74963;SDS011;63521;51.900;4.748;2022-11-04T14:51:30;0.70;;;0.68;;
74963;SDS011;63521;51.900;4.748;2022-11-04T14:54:13;0.70;;;0.70;;
74963;SDS011;63521;51.900;4.748;2022-11-04T14:57:06;0.85;;;0.47;;
74963;SDS011;63521;51.900;4.748;2022-11-04T14:59:42;0.52;;;0.52;;
74963;SDS011;63521;51.900;4.748;2022-11-04T15:02:10;0.90;;;0.60;;
74963;SDS011;63521;51.900;4.748;2022-11-04T15:04:49;0.93;;;0.50;;
74963;SDS011;63521;51.900;4.748;2022-11-04T15:07:32;0.77;;;0.77;;
74963;SDS011;63521;51.900;4.748;2022-11-04T15:10:13;0.40;;;0.40;;
74963;SDS011;63521;51.900;4.748;2022-11-04T15:12:44;0.80;;;0.70;;
74963;SDS011;63521;51.900;4.748;2022-11-04T15:15:37;0.77;;;0.70;;
74963;SDS011;63521;51.900;4.748;2022-11-04T15:18:07;1.30;;;0.70;;
74963;SDS011;63521;51.900;4.748;2022-11-04T15:20:37;0.52;;;0.50;;
74963;SDS011;63521;51.900;4.748;2022-11-04T15:26:19;0.70;;;0.70;;
74963;SDS011;63521;51.900;4.748;2022-11-04T15:28:46;0.90;;;0.60;;
74963;SDS011;63521;51.900;4.748;2022-11-04T15:31:15;0.70;;;0.52;;
74963;SDS011;63521;51.900;4.748;2022-11-04T15:33:57;1.40;;;0.50;;
74963;SDS011;63521;51.900;4.748;2022-11-04T15:36:32;1.13;;;0.63;;
74963;SDS011;63521;51.900;4.748;2022-11-04T15:41:32;1.08;;;0.50;;
74963;SDS011;63521;51.900;4.748;2022-11-04T15:44:20;0.70;;;0.70;;
74963;SDS011;63521;51.900;4.748;2022-11-04T15:46:51;0.60;;;0.60;;
74963;SDS011;63521;51.900;4.748;2022-11-04T15:49:25;0.50;;;0.50;;
74963;SDS011;63521;51.900;4.748;2022-11-04T15:52:27;0.55;;;0.50;;
74963;SDS011;63521;51.900;4.748;2022-11-04T15:54:50;0.50;;;0.50;;
74963;SDS011;63521;51.900;4.748;2022-11-04T15:57:21;1.55;;;0.80;;
74963;SDS011;63521;51.900;4.748;2022-11-04T16:02:28;1.20;;;0.80;;
74963;SDS011;63521;51.900;4.748;2022-11-04T16:05:04;0.88;;;0.70;;
74963;SDS011;63521;51.900;4.748;2022-11-04T16:07:37;1.25;;;0.73;;
74963;SDS011;63521;51.900;4.748;2022-11-04T16:12:57;0.93;;;0.70;;
74963;SDS011;63521;51.900;4.748;2022-11-04T16:17:55;1.50;;;0.90;;
74963;SDS011;63521;51.900;4.748;2022-11-04T16:20:20;1.00;;;0.80;;
74963;SDS011;63521;51.900;4.748;2022-11-04T16:22:46;2.22;;;0.90;;
74963;SDS011;63521;51.900;4.748;2022-11-04T16:32:02;1.55;;;0.80;;
74963;SDS011;63521;51.900;4.748;2022-11-04T16:34:30;1.13;;;0.90;;
74963;SDS011;63521;51.900;4.748;2022-11-04T16:36:57;2.00;;;1.00;;
74963;SDS011;63521;51.900;4.748;2022-11-04T16:39:25;1.08;;;0.80;;
74963;SDS011;63521;51.900;4.748;2022-11-04T16:41:50;0.90;;;0.82;;
74963;SDS011;63521;51.900;4.748;2022-11-04T16:47:20;0.90;;;0.80;;
74963;SDS011;63521;51.900;4.748;2022-11-04T16:49:46;1.00;;;0.85;;
74963;SDS011;63521;51.900;4.748;2022-11-04T16:52:14;2.00;;;0.73;;
74963;SDS011;63521;51.900;4.748;2022-11-04T16:54:42;1.05;;;0.77;;
74963;SDS011;63521;51.900;4.748;2022-11-04T16:57:08;0.90;;;0.77;;
74963;SDS011;63521;51.900;4.748;2022-11-04T16:59:36;1.40;;;0.88;;
74963;SDS011;63521;51.900;4.748;2022-11-04T17:02:10;1.05;;;0.90;;
74963;SDS011;63521;51.900;4.748;2022-11-04T17:04:38;1.00;;;0.70;;
74963;SDS011;63521;51.900;4.748;2022-11-04T17:07:04;1.38;;;0.90;;
74963;SDS011;63521;51.900;4.748;2022-11-04T17:09:29;1.50;;;0.85;;
74963;SDS011;63521;51.900;4.748;2022-11-04T17:11:55;1.80;;;1.10;;
74963;SDS011;63521;51.900;4.748;2022-11-04T17:14:20;0.77;;;0.77;;
74963;SDS011;63521;51.900;4.748;2022-11-04T17:16:46;1.48;;;0.90;;
74963;SDS011;63521;51.900;4.748;2022-11-04T17:19:14;1.13;;;0.82;;
74963;SDS011;63521;51.900;4.748;2022-11-04T17:21:40;2.58;;;0.90;;
74963;SDS011;63521;51.900;4.748;2022-11-04T17:24:07;2.67;;;1.08;;
74963;SDS011;63521;51.900;4.748;2022-11-04T17:26:33;1.20;;;0.75;;
74963;SDS011;63521;51.900;4.748;2022-11-04T17:28:59;0.98;;;0.70;;
74963;SDS011;63521;51.900;4.748;2022-11-04T17:31:24;1.05;;;0.90;;
74963;SDS011;63521;51.900;4.748;2022-11-04T17:33:49;1.50;;;0.95;;
74963;SDS011;63521;51.900;4.748;2022-11-04T17:36:16;1.08;;;0.98;;
74963;SDS011;63521;51.900;4.748;2022-11-04T17:38:42;1.10;;;0.98;;
74963;SDS011;63521;51.900;4.748;2022-11-04T17:41:08;1.27;;;1.10;;
74963;SDS011;63521;51.900;4.748;2022-11-04T17:43:52;1.27;;;1.08;;
74963;SDS011;63521;51.900;4.748;2022-11-04T17:46:27;1.40;;;1.15;;
74963;SDS011;63521;51.900;4.748;2022-11-04T17:51:27;1.38;;;1.08;;
74963;SDS011;63521;51.900;4.748;2022-11-04T17:53:53;2.20;;;1.30;;
74963;SDS011;63521;51.900;4.748;2022-11-04T17:56:20;1.95;;;1.10;;
74963;SDS011;63521;51.900;4.748;2022-11-04T17:58:47;1.70;;;1.40;;
74963;SDS011;63521;51.900;4.748;2022-11-04T18:01:13;2.03;;;1.42;;
74963;SDS011;63521;51.900;4.748;2022-11-04T18:03:40;1.60;;;1.20;;
74963;SDS011;63521;51.900;4.748;2022-11-04T18:06:06;2.97;;;1.17;;
74963;SDS011;63521;51.900;4.748;2022-11-04T18:08:32;1.48;;;1.20;;
74963;SDS011;63521;51.900;4.748;2022-11-04T18:10:59;1.23;;;1.05;;
74963;SDS011;63521;51.900;4.748;2022-11-04T18:13:25;1.83;;;1.35;;
74963;SDS011;63521;51.900;4.748;2022-11-04T18:15:51;1.95;;;1.25;;